createdAt,value
2017-10-16T00:00:36.489Z,15.90
2017-10-16T00:03:04.118Z,14.87
2017-10-16T00:05:31.701Z,15.63
2017-10-16T00:07:59.263Z,16.40
2017-10-16T00:10:27.034Z,16.70
2017-10-16T00:12:54.603Z,15.00
2017-10-16T00:15:22.193Z,14.80
2017-10-16T00:17:50.519Z,14.73
2017-10-16T00:20:18.091Z,15.07
2017-10-16T00:22:45.682Z,14.00
2017-10-16T00:25:13.329Z,14.97
2017-10-16T00:27:40.921Z,16.00
2017-10-16T00:30:08.487Z,15.33
2017-10-16T00:32:36.046Z,15.97
2017-10-16T00:35:03.659Z,14.90
2017-10-16T00:37:31.214Z,15.47
2017-10-16T00:39:58.793Z,16.43
2017-10-16T00:42:26.382Z,16.10
2017-10-16T00:44:53.962Z,14.40
2017-10-16T00:47:21.515Z,15.70
2017-10-16T00:49:49.097Z,15.83
2017-10-16T00:52:17.413Z,15.73
2017-10-16T00:54:45.063Z,15.50
2017-10-16T00:57:12.627Z,15.20
2017-10-16T00:59:40.179Z,16.50
2017-10-16T01:02:07.770Z,16.87
2017-10-16T01:04:35.338Z,15.90
2017-10-16T01:07:02.923Z,16.27
2017-10-16T01:09:30.489Z,15.70
2017-10-16T01:11:58.818Z,15.00
2017-10-16T01:14:26.398Z,15.47
2017-10-16T01:16:54.055Z,15.87
2017-10-16T01:19:21.634Z,16.73
2017-10-16T01:21:49.210Z,16.87
2017-10-16T01:24:16.814Z,16.30
2017-10-16T01:26:44.390Z,15.60
2017-10-16T01:29:11.952Z,15.53
2017-10-16T01:31:39.558Z,15.67
2017-10-16T01:34:07.131Z,16.80
2017-10-16T01:36:35.458Z,16.17
2017-10-16T01:39:03.034Z,15.33
2017-10-16T01:41:30.607Z,17.30
2017-10-16T01:43:58.150Z,17.70
2017-10-16T01:46:25.731Z,15.40
2017-10-16T01:48:53.302Z,17.10
2017-10-16T01:51:20.877Z,18.90
2017-10-16T01:53:48.443Z,18.73
2017-10-16T01:56:16.779Z,16.90
2017-10-16T01:58:44.436Z,16.57
2017-10-16T02:01:12.001Z,17.40
2017-10-16T02:03:39.562Z,16.57
2017-10-16T02:06:07.155Z,16.27
2017-10-16T02:08:34.721Z,16.20
2017-10-16T02:11:02.302Z,16.53
2017-10-16T02:13:30.645Z,15.80
2017-10-16T02:15:58.205Z,16.80
2017-10-16T02:18:25.794Z,16.57
2017-10-16T02:20:54.153Z,15.50
2017-10-16T02:23:21.819Z,16.13
2017-10-16T02:25:49.378Z,14.23
2017-10-16T02:28:16.946Z,16.47
2017-10-16T02:30:44.624Z,16.23
2017-10-16T02:33:13.076Z,16.03
2017-10-16T02:35:40.655Z,15.20
2017-10-16T02:38:08.268Z,15.03
2017-10-16T02:40:35.830Z,15.37
2017-10-16T02:43:03.397Z,15.93
2017-10-16T02:45:30.981Z,15.90
2017-10-16T02:47:58.542Z,15.10
2017-10-16T02:50:26.138Z,14.67
2017-10-16T02:52:53.731Z,15.43
2017-10-16T02:55:21.394Z,15.53
2017-10-16T02:57:49.034Z,15.63
2017-10-16T03:00:17.360Z,15.50
2017-10-16T03:02:44.938Z,17.10
2017-10-16T03:05:12.534Z,15.10
2017-10-16T03:07:40.907Z,15.80
2017-10-16T03:10:08.474Z,15.57
2017-10-16T03:12:36.827Z,13.67
2017-10-16T03:15:04.466Z,16.00
2017-10-16T03:17:32.041Z,16.67
2017-10-16T03:19:59.621Z,14.77
2017-10-16T03:22:27.198Z,15.60
2017-10-16T03:24:54.792Z,15.53
2017-10-16T03:27:23.161Z,15.87
2017-10-16T03:29:51.577Z,15.53
2017-10-16T03:32:19.155Z,16.73
2017-10-16T03:34:46.714Z,15.50
2017-10-16T03:37:14.318Z,16.63
2017-10-16T03:39:42.662Z,15.30
2017-10-16T03:42:10.243Z,15.30
2017-10-16T03:44:37.823Z,15.30
2017-10-16T03:47:06.142Z,16.07
2017-10-16T03:49:33.738Z,16.20
2017-10-16T03:52:01.310Z,17.20
2017-10-16T03:54:29.758Z,14.67
2017-10-16T03:56:57.354Z,14.63
2017-10-16T03:59:25.684Z,16.20
2017-10-16T04:01:53.252Z,16.97
2017-10-16T04:04:21.665Z,15.80
2017-10-16T04:06:49.278Z,15.00
2017-10-16T04:09:16.866Z,16.17
2017-10-16T04:11:44.431Z,14.53
2017-10-16T04:14:12.014Z,16.37
2017-10-16T04:16:39.646Z,17.60
2017-10-16T04:19:07.260Z,15.23
2017-10-16T04:21:35.626Z,16.23
2017-10-16T04:24:03.991Z,17.17
2017-10-16T04:26:31.549Z,16.77
2017-10-16T04:28:59.146Z,15.40
2017-10-16T04:31:27.492Z,17.10
2017-10-16T04:33:55.905Z,14.53
2017-10-16T04:36:24.260Z,15.90
2017-10-16T04:38:52.270Z,17.00
2017-10-16T04:41:19.834Z,15.80
2017-10-16T04:43:47.405Z,14.20
2017-10-16T04:46:14.996Z,14.50
2017-10-16T04:48:43.339Z,14.93
2017-10-16T04:51:10.969Z,13.97
2017-10-16T04:53:38.603Z,14.23
2017-10-16T04:56:06.931Z,15.10
2017-10-16T04:58:34.518Z,14.70
2017-10-16T05:01:02.882Z,15.87
2017-10-16T05:03:30.509Z,16.73
2017-10-16T05:05:58.094Z,14.93
2017-10-16T05:08:25.658Z,17.73
2017-10-16T05:10:53.227Z,15.57
2017-10-16T05:13:20.815Z,15.23
2017-10-16T05:15:48.397Z,16.43
2017-10-16T05:18:16.029Z,14.33
2017-10-16T05:20:43.622Z,15.47
2017-10-16T05:23:11.189Z,15.67
2017-10-16T05:25:38.782Z,14.87
2017-10-16T05:28:07.126Z,14.20
2017-10-16T05:30:34.842Z,15.77
2017-10-16T05:33:02.438Z,15.00
2017-10-16T05:35:30.087Z,16.20
2017-10-16T05:37:57.666Z,15.00
2017-10-16T05:40:25.258Z,16.90
2017-10-16T05:42:52.869Z,15.20
2017-10-16T05:45:20.454Z,16.27
2017-10-16T05:47:48.034Z,16.80
2017-10-16T05:50:15.734Z,15.03
2017-10-16T05:52:44.074Z,15.57
2017-10-16T05:55:11.668Z,15.33
2017-10-16T05:57:40.022Z,15.30
2017-10-16T06:00:07.613Z,16.00
2017-10-16T06:02:35.220Z,15.43
2017-10-16T06:05:02.791Z,16.00
2017-10-16T06:07:30.608Z,14.80
2017-10-16T06:09:59.003Z,16.87
2017-10-16T06:12:26.614Z,15.23
2017-10-16T06:14:54.286Z,14.83
2017-10-16T06:17:22.647Z,14.30
2017-10-16T06:19:50.220Z,15.00
2017-10-16T06:22:17.778Z,14.20
2017-10-16T06:24:45.413Z,15.57
2017-10-16T06:27:12.988Z,15.80
2017-10-16T06:29:40.643Z,17.13
2017-10-16T06:32:08.226Z,16.70
2017-10-16T06:34:35.799Z,16.20
2017-10-16T06:37:03.389Z,13.00
2017-10-16T06:39:31.872Z,16.47
2017-10-16T06:42:00.239Z,15.50
2017-10-16T06:44:28.566Z,15.53
2017-10-16T06:46:56.158Z,15.00
2017-10-16T06:49:23.727Z,14.80
2017-10-16T06:51:51.316Z,14.30
2017-10-16T06:54:19.664Z,15.83
2017-10-16T06:56:47.238Z,14.70
2017-10-16T06:59:14.999Z,15.97
2017-10-16T07:01:43.333Z,16.60
2017-10-16T07:04:10.902Z,16.83
2017-10-16T07:06:38.529Z,15.60
2017-10-16T07:09:06.870Z,18.27
2017-10-16T07:11:34.464Z,16.30
2017-10-16T07:14:02.809Z,17.73
2017-10-16T07:16:30.610Z,16.97
2017-10-16T07:18:58.965Z,14.80
2017-10-16T07:21:27.404Z,15.23
2017-10-16T07:23:55.410Z,15.37
2017-10-16T07:26:23.075Z,15.40
2017-10-16T07:28:51.422Z,15.93
2017-10-16T07:31:19.013Z,14.33
2017-10-16T07:33:47.404Z,15.10
2017-10-16T07:36:14.947Z,14.30
2017-10-16T07:38:42.517Z,15.60
2017-10-16T07:41:10.098Z,15.37
2017-10-16T07:43:38.422Z,15.33
2017-10-16T07:46:05.981Z,15.13
2017-10-16T07:48:33.588Z,15.00
2017-10-16T07:51:01.924Z,14.73
2017-10-16T07:53:29.514Z,13.83
2017-10-16T07:55:57.098Z,13.50
2017-10-16T07:58:25.450Z,14.63
2017-10-16T08:00:53.014Z,13.53
2017-10-16T08:03:20.574Z,13.97
2017-10-16T08:05:48.162Z,14.43
2017-10-16T08:08:16.533Z,13.57
2017-10-16T08:10:44.866Z,12.70
2017-10-16T08:13:12.451Z,14.00
2017-10-16T08:15:39.986Z,13.30
2017-10-16T08:18:07.594Z,13.13
2017-10-16T08:20:35.161Z,13.17
2017-10-16T08:23:02.731Z,13.23
2017-10-16T08:25:30.311Z,12.70
2017-10-16T08:27:58.646Z,12.90
2017-10-16T08:30:26.215Z,13.03
2017-10-16T08:32:54.587Z,13.30
2017-10-16T08:35:22.171Z,11.87
2017-10-16T08:37:49.756Z,11.97
2017-10-16T08:40:18.102Z,11.20
2017-10-16T08:42:45.758Z,11.77
2017-10-16T08:45:13.431Z,9.80
2017-10-16T08:47:41.031Z,10.97
2017-10-16T08:50:09.370Z,10.90
2017-10-16T08:52:36.955Z,10.43
2017-10-16T08:55:05.286Z,11.90
2017-10-16T08:57:32.906Z,11.20
2017-10-16T09:00:01.243Z,10.90
2017-10-16T09:02:28.796Z,11.60
2017-10-16T09:04:56.482Z,10.50
2017-10-16T09:07:24.104Z,10.63
2017-10-16T09:09:51.678Z,10.63
2017-10-16T09:12:19.346Z,10.80
2017-10-16T09:14:46.933Z,10.00
2017-10-16T09:17:14.468Z,10.63
2017-10-16T09:19:42.050Z,10.70
2017-10-16T09:22:09.647Z,10.67
2017-10-16T09:24:37.971Z,10.10
2017-10-16T09:27:05.557Z,9.37
2017-10-16T09:29:33.130Z,10.30
2017-10-16T09:32:00.702Z,9.57
2017-10-16T09:34:28.284Z,9.90
2017-10-16T09:36:56.633Z,9.77
2017-10-16T09:39:24.234Z,9.70
2017-10-16T09:41:52.555Z,9.43
2017-10-16T09:44:20.184Z,9.40
2017-10-16T09:46:47.734Z,10.03
2017-10-16T09:49:16.071Z,9.80
2017-10-16T09:51:43.614Z,8.67
2017-10-16T09:54:11.182Z,9.77
2017-10-16T09:56:38.791Z,8.73
2017-10-16T09:59:07.121Z,9.70
2017-10-16T10:01:34.685Z,8.43
2017-10-16T10:04:02.274Z,8.67
2017-10-16T10:06:30.010Z,9.43
2017-10-16T10:08:57.710Z,9.23
2017-10-16T10:11:25.273Z,8.13
2017-10-16T10:13:52.860Z,8.63
2017-10-16T10:16:21.233Z,8.30
2017-10-16T10:18:49.021Z,8.63
2017-10-16T10:21:16.593Z,9.40
2017-10-16T10:23:44.202Z,8.10
2017-10-16T10:26:11.796Z,9.07
2017-10-16T10:28:40.152Z,10.33
2017-10-16T10:31:07.796Z,8.20
2017-10-16T10:33:35.365Z,7.83
2017-10-16T10:36:02.950Z,9.37
2017-10-16T10:38:30.559Z,8.70
2017-10-16T10:40:58.219Z,8.33
2017-10-16T10:43:25.797Z,8.80
2017-10-16T10:45:53.432Z,8.73
2017-10-16T10:48:21.003Z,8.87
2017-10-16T10:50:48.563Z,8.73
2017-10-16T10:53:16.227Z,9.50
2017-10-16T10:55:43.798Z,8.00
2017-10-16T10:58:11.467Z,8.00
2017-10-16T11:00:39.146Z,9.13
2017-10-16T11:03:06.711Z,7.80
2017-10-16T11:05:34.304Z,8.80
2017-10-16T11:08:02.061Z,7.97
2017-10-16T11:10:30.430Z,8.70
2017-10-16T11:12:58.758Z,7.83
2017-10-16T11:15:26.339Z,9.13
2017-10-16T11:17:54.050Z,8.30
2017-10-16T11:20:22.383Z,8.50
2017-10-16T11:22:49.960Z,8.70
2017-10-16T11:25:17.535Z,8.20
2017-10-16T11:27:45.161Z,8.20
2017-10-16T11:30:13.453Z,7.70
2017-10-16T11:32:41.005Z,8.00
2017-10-16T11:35:08.564Z,8.10
2017-10-16T11:37:36.130Z,7.63
2017-10-16T11:40:03.747Z,8.13
2017-10-16T11:42:31.297Z,7.80
2017-10-16T11:44:58.887Z,7.63
2017-10-16T11:47:27.234Z,9.10
2017-10-16T11:49:54.800Z,7.50
2017-10-16T11:52:22.380Z,7.33
2017-10-16T11:54:49.982Z,7.77
2017-10-16T11:57:17.631Z,7.50
2017-10-16T11:59:45.963Z,7.07
2017-10-16T12:02:13.550Z,8.07
2017-10-16T12:04:41.950Z,7.53
2017-10-16T12:07:10.274Z,7.23
2017-10-16T12:09:37.906Z,7.77
2017-10-16T12:12:05.496Z,7.90
2017-10-16T12:14:33.119Z,7.60
2017-10-16T12:17:04.341Z,8.73
2017-10-16T12:19:31.896Z,7.50
2017-10-16T12:22:00.541Z,7.70
2017-10-16T12:24:28.061Z,8.37
2017-10-16T12:26:56.382Z,7.60
2017-10-16T12:29:23.953Z,7.77
2017-10-16T12:31:53.053Z,8.40
2017-10-16T12:34:20.636Z,7.83
2017-10-16T12:36:48.194Z,7.30
2017-10-16T12:39:15.766Z,7.17
2017-10-16T12:41:43.364Z,7.73
2017-10-16T12:44:11.794Z,7.47
2017-10-16T12:46:49.355Z,6.37
2017-10-16T12:49:17.671Z,6.93
2017-10-16T12:51:45.261Z,7.50
2017-10-16T12:54:12.817Z,7.00
2017-10-16T12:56:40.351Z,7.43
2017-10-16T12:59:07.976Z,6.97
2017-10-16T13:01:35.631Z,8.27
2017-10-16T13:04:03.970Z,6.67
2017-10-16T13:06:31.555Z,8.20
2017-10-16T13:08:59.190Z,6.53
2017-10-16T13:11:26.769Z,8.37
2017-10-16T13:13:54.330Z,7.90
2017-10-16T13:16:21.910Z,6.27
2017-10-16T13:18:49.478Z,8.33
2017-10-16T13:21:17.045Z,7.03
2017-10-16T13:23:44.788Z,7.87
2017-10-16T13:26:12.465Z,7.33
2017-10-16T13:28:40.039Z,7.30
2017-10-16T13:31:07.710Z,7.60
2017-10-16T13:33:36.051Z,7.30
2017-10-16T13:36:03.598Z,7.60
2017-10-16T13:38:31.165Z,7.27
2017-10-16T13:40:58.751Z,7.80
2017-10-16T13:43:26.968Z,8.70
2017-10-16T13:45:55.263Z,7.50
2017-10-16T13:48:22.864Z,7.00
2017-10-16T13:50:50.416Z,7.30
2017-10-16T13:53:17.983Z,7.57
2017-10-16T13:55:45.542Z,7.67
2017-10-16T13:58:13.107Z,6.87
2017-10-16T14:00:40.684Z,8.07
2017-10-16T14:03:08.890Z,7.40
2017-10-16T14:05:36.446Z,9.00
2017-10-16T14:08:04.014Z,9.10
2017-10-16T14:10:33.687Z,7.53
2017-10-16T14:13:01.275Z,8.40
2017-10-16T14:15:28.858Z,7.93
2017-10-16T14:17:57.320Z,8.53
2017-10-16T14:20:24.929Z,8.37
2017-10-16T14:22:52.518Z,8.63
2017-10-16T14:25:20.110Z,8.70
2017-10-16T14:27:47.803Z,8.17
2017-10-16T14:30:15.492Z,8.43
2017-10-16T14:32:43.082Z,7.00
2017-10-16T14:35:10.664Z,8.47
2017-10-16T14:37:38.378Z,7.50
2017-10-16T14:40:06.791Z,8.10
2017-10-16T14:42:34.486Z,8.00
2017-10-16T14:45:02.077Z,9.03
2017-10-16T14:47:39.602Z,8.37
2017-10-16T14:50:08.115Z,8.30
2017-10-16T14:52:35.717Z,8.00
2017-10-16T14:55:03.277Z,6.80
2017-10-16T14:57:30.833Z,8.40
2017-10-16T14:59:59.170Z,8.30
2017-10-16T15:02:26.735Z,8.40
2017-10-16T15:04:55.173Z,8.70
2017-10-16T15:07:23.559Z,8.70
2017-10-16T15:09:51.122Z,7.40
2017-10-16T15:12:18.768Z,7.10
2017-10-16T15:14:46.543Z,8.40
2017-10-16T15:17:14.133Z,8.67
2017-10-16T15:19:41.715Z,9.20
2017-10-16T15:22:10.138Z,8.30
2017-10-16T15:24:37.702Z,8.27
2017-10-16T15:27:05.261Z,7.43
2017-10-16T15:29:32.821Z,7.87
2017-10-16T15:32:00.393Z,9.00
2017-10-16T15:34:28.015Z,8.37
2017-10-16T15:36:55.577Z,8.70
2017-10-16T15:39:23.135Z,7.87
2017-10-16T15:41:50.739Z,8.80
2017-10-16T15:44:18.292Z,8.80
2017-10-16T15:46:45.916Z,7.57
2017-10-16T15:49:13.512Z,8.03
2017-10-16T15:51:41.091Z,8.03
2017-10-16T15:54:08.672Z,8.30
2017-10-16T15:56:37.011Z,9.07
2017-10-16T15:59:04.687Z,8.87
2017-10-16T16:01:32.312Z,8.17
2017-10-16T16:03:59.889Z,8.97
2017-10-16T16:06:27.441Z,9.90
2017-10-16T16:08:54.987Z,8.67
2017-10-16T16:11:22.560Z,9.23
2017-10-16T16:13:50.123Z,8.73
2017-10-16T16:16:17.675Z,9.63
2017-10-16T16:18:45.248Z,8.60
2017-10-16T16:21:13.003Z,8.67
2017-10-16T16:23:40.581Z,8.40
2017-10-16T16:26:08.166Z,10.27
2017-10-16T16:28:35.761Z,9.77
2017-10-16T16:31:04.195Z,9.30
2017-10-16T16:33:31.783Z,9.80
2017-10-16T16:35:59.356Z,8.20
2017-10-16T16:38:27.706Z,9.10
2017-10-16T16:40:55.303Z,9.40
2017-10-16T16:43:22.972Z,9.33
2017-10-16T16:45:51.307Z,8.20
2017-10-16T16:48:18.924Z,9.90
2017-10-16T16:50:47.253Z,8.90
2017-10-16T16:53:14.826Z,9.83
2017-10-16T16:55:42.540Z,8.70
2017-10-16T16:58:10.177Z,8.83
2017-10-16T17:00:38.566Z,9.20
2017-10-16T17:03:07.084Z,9.53
2017-10-16T17:05:34.743Z,7.90
2017-10-16T17:08:02.381Z,8.53
2017-10-16T17:10:30.820Z,9.27
2017-10-16T17:12:58.477Z,7.93
2017-10-16T17:15:26.060Z,9.20
2017-10-16T17:17:53.648Z,9.70
2017-10-16T17:20:21.464Z,9.40
2017-10-16T17:22:49.225Z,9.73
2017-10-16T17:25:16.852Z,8.87
2017-10-16T17:27:44.522Z,9.20
2017-10-16T17:30:14.051Z,8.10
2017-10-16T17:32:41.603Z,9.10
2017-10-16T17:35:09.177Z,8.30
2017-10-16T17:37:36.771Z,9.07
2017-10-16T17:40:05.117Z,9.20
2017-10-16T17:42:32.720Z,10.40
2017-10-16T17:45:00.301Z,9.23
2017-10-16T17:47:27.961Z,10.10
2017-10-16T17:49:55.581Z,9.70
2017-10-16T17:52:23.963Z,11.03
2017-10-16T17:54:51.784Z,10.13
2017-10-16T17:57:19.356Z,9.57
2017-10-16T17:59:47.991Z,10.90
2017-10-16T18:02:16.343Z,10.87
2017-10-16T18:04:43.964Z,10.20
2017-10-16T18:07:12.514Z,10.80
2017-10-16T18:09:40.102Z,11.33
2017-10-16T18:12:07.831Z,11.47
2017-10-16T18:14:35.413Z,11.13
2017-10-16T18:17:03.746Z,10.40
2017-10-16T18:19:31.350Z,11.33
2017-10-16T18:21:59.707Z,12.30
2017-10-16T18:24:27.325Z,11.97
2017-10-16T18:26:54.998Z,12.10
2017-10-16T18:29:22.623Z,11.60
2017-10-16T18:31:50.212Z,11.97
2017-10-16T18:34:17.771Z,12.10
2017-10-16T18:36:45.379Z,11.83
2017-10-16T18:39:12.963Z,11.00
2017-10-16T18:41:40.546Z,11.63
2017-10-16T18:44:08.878Z,12.73
2017-10-16T18:46:36.461Z,12.03
2017-10-16T18:49:14.173Z,13.43
2017-10-16T18:51:41.749Z,11.80
2017-10-16T18:54:09.366Z,12.70
2017-10-16T18:56:37.004Z,13.33
2017-10-16T18:59:05.340Z,12.87
2017-10-16T19:01:33.713Z,12.03
2017-10-16T19:04:01.406Z,12.07
2017-10-16T19:06:29.045Z,11.77
2017-10-16T19:08:56.635Z,12.60
2017-10-16T19:11:24.449Z,11.93
2017-10-16T19:13:52.128Z,12.33
2017-10-16T19:16:19.725Z,13.87
2017-10-16T19:18:48.082Z,12.73
2017-10-16T19:21:15.836Z,12.60
2017-10-16T19:23:44.572Z,12.20
2017-10-16T19:26:12.197Z,12.33
2017-10-16T19:28:40.860Z,12.63
2017-10-16T19:31:08.631Z,13.70
2017-10-16T19:33:36.234Z,12.10
2017-10-16T19:36:04.566Z,13.43
2017-10-16T19:38:32.301Z,12.47
2017-10-16T19:41:00.304Z,15.20
2017-10-16T19:43:29.176Z,13.20
2017-10-16T19:45:56.961Z,13.23
2017-10-16T19:48:25.532Z,12.70
2017-10-16T19:50:53.212Z,12.77
2017-10-16T19:53:20.868Z,13.30
2017-10-16T19:55:48.643Z,12.53
2017-10-16T19:58:16.240Z,13.30
2017-10-16T20:00:43.878Z,13.27
2017-10-16T20:03:11.676Z,13.00
2017-10-16T20:05:40.160Z,13.13
2017-10-16T20:08:08.022Z,12.67
2017-10-16T20:10:35.661Z,13.43
2017-10-16T20:13:03.295Z,13.00
2017-10-16T20:15:30.898Z,14.00
2017-10-16T20:17:58.550Z,13.00
2017-10-16T20:20:26.477Z,13.80
2017-10-16T20:23:05.062Z,14.10
2017-10-16T20:25:33.132Z,13.60
2017-10-16T20:28:00.815Z,13.57
2017-10-16T20:30:28.474Z,13.10
2017-10-16T20:32:56.327Z,12.80
2017-10-16T20:35:24.482Z,12.20
2017-10-16T20:37:52.959Z,12.87
2017-10-16T20:40:20.566Z,12.60
2017-10-16T20:42:48.941Z,13.10
2017-10-16T20:45:17.299Z,15.40
2017-10-16T20:47:45.075Z,14.90
2017-10-16T20:50:12.796Z,13.37
2017-10-16T20:52:40.567Z,13.90
2017-10-16T20:55:08.205Z,14.00
2017-10-16T20:57:35.789Z,13.57
2017-10-16T21:00:03.415Z,13.00
2017-10-16T21:02:31.769Z,15.43
2017-10-16T21:05:00.171Z,14.03
2017-10-16T21:07:27.899Z,13.90
2017-10-16T21:09:55.477Z,13.30
2017-10-16T21:12:23.058Z,14.13
2017-10-16T21:14:51.379Z,13.50
2017-10-16T21:17:19.070Z,15.30
2017-10-16T21:19:46.699Z,13.10
2017-10-16T21:22:14.334Z,13.87
2017-10-16T21:24:52.565Z,14.70
2017-10-16T21:27:20.865Z,14.17
2017-10-16T21:29:48.422Z,14.00
2017-10-16T21:32:16.130Z,12.83
2017-10-16T21:34:43.762Z,14.03
2017-10-16T21:37:11.311Z,13.63
2017-10-16T21:39:38.910Z,13.77
2017-10-16T21:42:06.484Z,14.73
2017-10-16T21:44:34.058Z,13.57
2017-10-16T21:47:01.746Z,14.27
2017-10-16T21:49:30.114Z,13.10
2017-10-16T21:51:58.555Z,13.40
2017-10-16T21:54:26.131Z,15.00
2017-10-16T21:56:53.691Z,14.20
2017-10-16T21:59:21.378Z,12.43
2017-10-16T22:01:49.058Z,14.50
2017-10-16T22:04:17.387Z,15.07
2017-10-16T22:06:44.991Z,14.03
2017-10-16T22:09:13.323Z,14.30
2017-10-16T22:11:40.910Z,14.93
2017-10-16T22:14:08.474Z,14.87
2017-10-16T22:16:36.042Z,14.53
2017-10-16T22:19:03.612Z,14.90
2017-10-16T22:21:31.303Z,14.00
2017-10-16T22:23:58.942Z,15.67
2017-10-16T22:26:27.328Z,14.23
2017-10-16T22:28:55.711Z,14.30
2017-10-16T22:31:24.191Z,13.67
2017-10-16T22:33:52.652Z,13.20
2017-10-16T22:36:20.482Z,14.30
2017-10-16T22:38:48.460Z,15.00
2017-10-16T22:41:16.184Z,13.50
2017-10-16T22:43:44.350Z,12.97
2017-10-16T22:46:11.916Z,13.87
2017-10-16T22:48:43.665Z,13.00
2017-10-16T23:16:52.121Z,15.07
2017-10-16T23:19:19.755Z,14.00
2017-10-16T23:21:48.085Z,13.43
2017-10-16T23:24:15.751Z,13.70
2017-10-16T23:26:43.389Z,13.53
2017-10-16T23:29:10.972Z,13.53
2017-10-16T23:31:39.589Z,14.23
2017-10-16T23:34:08.273Z,13.40
2017-10-16T23:36:36.899Z,14.37
2017-10-16T23:39:05.537Z,13.27
2017-10-16T23:41:33.126Z,14.20
2017-10-16T23:44:01.466Z,14.50
2017-10-16T23:46:29.069Z,13.73
2017-10-16T23:48:56.671Z,14.97
2017-10-16T23:51:30.314Z,13.73
2017-10-16T23:53:58.165Z,13.80
2017-10-16T23:56:26.645Z,13.70
2017-10-16T23:58:55.055Z,13.87
